createdAt,value
2023-02-22T00:02:29.535Z,5.36
2023-02-22T00:05:02.084Z,5.32
2023-02-22T00:07:31.934Z,5.33
2023-02-22T00:10:01.829Z,5.35
2023-02-22T00:12:31.740Z,5.31
2023-02-22T00:15:02.665Z,5.31
2023-02-22T00:17:34.655Z,5.04
2023-02-22T00:20:10.542Z,5.03
2023-02-22T00:22:40.386Z,5.05
2023-02-22T00:25:11.370Z,4.80
2023-02-22T00:27:41.246Z,4.81
2023-02-22T00:30:19.181Z,4.73
2023-02-22T00:32:51.239Z,4.56
2023-02-22T00:35:26.496Z,4.58
2023-02-22T00:37:59.834Z,4.69
2023-02-22T00:40:33.247Z,4.49
2023-02-22T00:43:06.113Z,4.62
2023-02-22T00:45:38.374Z,4.46
2023-02-22T00:48:10.209Z,4.55
2023-02-22T00:50:43.143Z,4.66
2023-02-22T00:53:14.688Z,4.64
2023-02-22T00:55:44.798Z,4.62
2023-02-22T00:58:14.649Z,4.64
2023-02-22T01:00:45.944Z,4.64
2023-02-22T01:03:22.764Z,4.59
2023-02-22T01:05:55.492Z,4.66
2023-02-22T01:08:25.641Z,4.64
2023-02-22T01:10:56.535Z,4.64
2023-02-22T01:13:27.412Z,4.63
2023-02-22T01:15:57.348Z,4.64
2023-02-22T01:18:27.422Z,4.63
2023-02-22T01:21:01.412Z,4.63
2023-02-22T01:23:31.780Z,4.61
2023-02-22T01:26:02.934Z,4.62
2023-02-22T01:28:33.018Z,4.61
2023-02-22T01:31:05.002Z,4.60
2023-02-22T01:33:35.504Z,4.56
2023-02-22T01:36:11.463Z,4.53
2023-02-22T01:38:41.529Z,4.56
2023-02-22T01:41:11.468Z,4.31
2023-02-22T01:43:41.771Z,4.48
2023-02-22T01:46:24.321Z,4.27
2023-02-22T01:48:59.023Z,4.34
2023-02-22T01:51:39.035Z,4.32
2023-02-22T01:54:16.387Z,4.24
2023-02-22T01:56:55.218Z,4.21
2023-02-22T01:59:26.887Z,4.11
2023-02-22T02:01:56.787Z,4.04
2023-02-22T02:04:28.781Z,3.88
2023-02-22T02:07:06.066Z,3.91
2023-02-22T02:09:42.596Z,3.78
2023-02-22T02:12:15.284Z,3.74
2023-02-22T02:14:46.379Z,3.48
2023-02-22T02:17:20.539Z,3.16
2023-02-22T02:20:04.882Z,2.90
2023-02-22T02:22:49.969Z,2.76
2023-02-22T02:26:04.115Z,2.68
2023-02-22T02:29:19.059Z,2.82
2023-02-22T02:32:25.074Z,2.87
2023-02-22T02:35:04.819Z,2.76
2023-02-22T02:37:44.108Z,2.53
2023-02-22T02:40:26.515Z,2.83
2023-02-22T02:43:04.252Z,3.16
2023-02-22T02:45:42.736Z,3.26
2023-02-22T02:48:20.454Z,2.95
2023-02-22T02:50:54.064Z,2.93
2023-02-22T02:53:28.957Z,3.26
2023-02-22T02:56:00.946Z,3.45
2023-02-22T02:58:32.451Z,3.58
2023-02-22T03:01:06.620Z,3.63
2023-02-22T03:03:59.072Z,3.49
2023-02-22T03:06:49.461Z,3.34
2023-02-22T03:09:34.540Z,3.56
2023-02-22T03:12:20.754Z,3.60
2023-02-22T03:15:08.923Z,3.52
2023-02-22T03:17:49.437Z,3.73
2023-02-22T03:20:32.917Z,3.69
2023-02-22T03:23:16.666Z,3.82
2023-02-22T03:25:53.165Z,3.79
2023-02-22T03:28:29.206Z,3.75
2023-02-22T03:31:03.651Z,3.79
2023-02-22T03:33:42.900Z,3.72
2023-02-22T03:36:21.865Z,3.70
2023-02-22T03:38:56.667Z,3.69
2023-02-22T03:41:29.573Z,3.63
2023-02-22T03:44:09.452Z,3.47
2023-02-22T03:46:43.698Z,3.56
2023-02-22T03:49:20.658Z,3.49
2023-02-22T03:51:53.908Z,3.57
2023-02-22T03:54:28.813Z,3.62
2023-02-22T03:57:06.352Z,3.68
2023-02-22T03:59:40.850Z,3.55
2023-02-22T04:02:11.003Z,3.64
2023-02-22T04:04:41.188Z,3.82
2023-02-22T04:07:13.874Z,3.67
2023-02-22T04:09:43.804Z,3.59
2023-02-22T04:12:14.360Z,3.50
2023-02-22T04:14:56.887Z,3.47
2023-02-22T04:17:27.178Z,3.67
2023-02-22T04:19:57.102Z,3.71
2023-02-22T04:22:32.588Z,3.57
2023-02-22T04:25:02.535Z,3.55
2023-02-22T04:27:32.385Z,3.49
2023-02-22T04:30:03.057Z,2.92
2023-02-22T04:32:35.006Z,2.65
2023-02-22T04:35:05.772Z,2.73
2023-02-22T04:37:39.579Z,2.60
2023-02-22T04:40:12.076Z,2.60
2023-02-22T04:42:43.667Z,2.52
2023-02-22T04:45:14.875Z,2.28
2023-02-22T04:47:45.287Z,2.25
2023-02-22T04:50:17.035Z,2.08
2023-02-22T04:52:49.699Z,2.47
2023-02-22T04:55:20.287Z,2.66
2023-02-22T04:57:50.462Z,2.88
2023-02-22T05:00:22.608Z,2.82
2023-02-22T05:02:56.266Z,2.74
2023-02-22T05:05:26.516Z,2.88
2023-02-22T05:07:58.954Z,2.96
2023-02-22T05:10:29.761Z,3.04
2023-02-22T05:13:00.165Z,3.09
2023-02-22T05:15:30.208Z,3.18
2023-02-22T05:18:00.932Z,2.92
2023-02-22T05:20:33.381Z,2.86
2023-02-22T05:23:07.948Z,2.67
2023-02-22T05:25:38.988Z,2.81
2023-02-22T05:28:14.606Z,2.42
2023-02-22T05:30:45.115Z,2.24
2023-02-22T05:33:16.595Z,2.26
2023-02-22T05:35:47.596Z,2.17
2023-02-22T05:38:20.182Z,2.56
2023-02-22T05:40:50.469Z,2.76
2023-02-22T05:43:21.361Z,2.27
2023-02-22T05:45:53.995Z,2.37
2023-02-22T05:48:24.061Z,2.52
2023-02-22T05:50:54.404Z,2.65
2023-02-22T05:53:28.251Z,2.76
2023-02-22T05:55:58.310Z,2.85
2023-02-22T05:58:29.466Z,2.92
2023-02-22T06:01:01.590Z,2.93
2023-02-22T06:03:33.414Z,2.93
2023-02-22T06:06:04.759Z,2.93
2023-02-22T06:08:38.017Z,2.93
2023-02-22T06:11:09.767Z,2.91
2023-02-22T06:13:41.084Z,2.89
2023-02-22T06:16:11.093Z,2.99
2023-02-22T06:18:41.760Z,2.99
2023-02-22T06:21:12.398Z,3.00
2023-02-22T06:23:45.459Z,3.13
2023-02-22T06:26:15.385Z,3.15
2023-02-22T06:28:46.148Z,3.22
2023-02-22T06:31:16.895Z,3.31
2023-02-22T06:33:48.336Z,3.40
2023-02-22T06:36:18.270Z,3.58
2023-02-22T06:38:52.712Z,4.49
2023-02-22T06:41:23.307Z,6.18
2023-02-22T06:43:53.798Z,6.17
2023-02-22T06:46:24.473Z,5.79
2023-02-22T06:48:55.009Z,5.38
2023-02-22T06:51:25.952Z,5.53
2023-02-22T06:53:59.621Z,5.38
2023-02-22T06:56:30.174Z,5.30
2023-02-22T06:59:02.799Z,5.51
2023-02-22T07:01:33.709Z,5.56
2023-02-22T07:04:03.960Z,5.88
2023-02-22T07:06:34.362Z,6.31
2023-02-22T07:09:07.636Z,6.99
2023-02-22T07:11:38.113Z,6.76
2023-02-22T07:14:09.437Z,6.77
2023-02-22T07:16:39.454Z,6.87
2023-02-22T07:19:09.521Z,6.96
2023-02-22T07:21:40.326Z,7.31
2023-02-22T07:24:12.953Z,7.72
2023-02-22T07:26:45.162Z,8.32
2023-02-22T07:29:15.085Z,9.62
2023-02-22T07:31:45.835Z,9.61
2023-02-22T07:34:15.913Z,10.51
2023-02-22T07:36:48.805Z,10.83
2023-02-22T07:39:21.949Z,11.04
2023-02-22T07:41:52.268Z,11.41
2023-02-22T07:44:28.201Z,11.57
2023-02-22T07:46:59.012Z,12.18
2023-02-22T07:49:28.857Z,12.78
2023-02-22T07:51:58.972Z,13.77
2023-02-22T07:54:31.448Z,12.77
2023-02-22T07:57:03.515Z,13.80
2023-02-22T07:59:34.416Z,14.16
2023-02-22T08:02:04.422Z,14.72
2023-02-22T08:04:35.033Z,15.11
2023-02-22T08:07:04.955Z,14.69
2023-02-22T08:09:38.399Z,15.45
2023-02-22T08:12:09.268Z,15.81
2023-02-22T08:14:40.047Z,15.78
2023-02-22T08:17:10.515Z,16.20
2023-02-22T08:19:40.394Z,17.11
2023-02-22T08:22:10.916Z,16.79
2023-02-22T08:24:43.461Z,17.30
2023-02-22T08:27:14.234Z,17.64
2023-02-22T08:29:44.240Z,17.43
2023-02-22T08:32:17.444Z,17.28
2023-02-22T08:34:47.760Z,17.77
2023-02-22T08:37:19.585Z,18.32
2023-02-22T08:39:52.568Z,19.00
2023-02-22T08:42:24.110Z,18.95
2023-02-22T08:44:53.975Z,17.26
2023-02-22T08:47:24.772Z,18.75
2023-02-22T08:49:55.094Z,18.95
2023-02-22T08:52:25.630Z,19.41
2023-02-22T08:54:58.501Z,19.78
2023-02-22T08:57:29.137Z,20.27
2023-02-22T08:59:59.623Z,20.57
2023-02-22T09:02:29.671Z,21.15
2023-02-22T09:05:00.460Z,21.58
2023-02-22T09:07:31.679Z,21.85
2023-02-22T09:10:04.960Z,21.63
2023-02-22T09:12:35.420Z,21.53
2023-02-22T09:15:05.389Z,22.10
2023-02-22T09:17:37.891Z,21.94
2023-02-22T09:20:10.770Z,22.87
2023-02-22T09:22:41.481Z,23.65
2023-02-22T09:25:17.079Z,23.95
2023-02-22T09:27:51.011Z,24.15
2023-02-22T09:30:26.782Z,24.76
2023-02-22T09:32:59.041Z,24.41
2023-02-22T09:35:30.081Z,24.35
2023-02-22T09:38:01.901Z,23.88
2023-02-22T09:40:45.403Z,24.17
2023-02-22T09:43:36.660Z,24.84
2023-02-22T09:46:26.046Z,25.08
2023-02-22T09:49:06.522Z,25.75
2023-02-22T09:51:45.385Z,27.47
2023-02-22T09:54:26.364Z,27.44
2023-02-22T09:57:05.623Z,25.80
2023-02-22T09:59:43.585Z,25.24
2023-02-22T10:02:28.446Z,23.72
2023-02-22T10:05:07.714Z,25.71
2023-02-22T10:07:46.998Z,27.52
2023-02-22T10:10:21.030Z,27.62
2023-02-22T10:13:09.757Z,27.42
2023-02-22T10:15:51.892Z,28.19
2023-02-22T10:19:08.467Z,27.72
2023-02-22T10:21:55.087Z,27.32
2023-02-22T10:24:41.081Z,26.61
2023-02-22T10:27:22.664Z,27.10
2023-02-22T10:30:12.669Z,27.03
2023-02-22T10:32:55.662Z,26.30
2023-02-22T10:35:27.991Z,26.64
2023-02-22T10:38:07.484Z,26.54
2023-02-22T10:40:46.945Z,27.03
2023-02-22T10:43:16.873Z,26.40
2023-02-22T10:46:04.398Z,26.28
2023-02-22T10:48:40.135Z,26.89
2023-02-22T10:51:13.864Z,26.97
2023-02-22T10:53:44.706Z,26.89
2023-02-22T10:56:25.952Z,26.44
2023-02-22T10:59:02.527Z,26.43
2023-02-22T11:01:42.652Z,26.57
2023-02-22T11:04:18.865Z,26.39
2023-02-22T11:06:51.308Z,26.09
2023-02-22T11:09:25.064Z,24.80
2023-02-22T11:12:12.325Z,25.27
2023-02-22T11:14:43.251Z,24.91
2023-02-22T11:17:27.538Z,23.60
2023-02-22T11:19:58.613Z,23.38
2023-02-22T11:22:31.183Z,22.46
2023-02-22T11:25:08.218Z,21.94
2023-02-22T11:27:44.053Z,21.89
2023-02-22T11:30:31.869Z,21.70
2023-02-22T11:33:24.203Z,21.66
2023-02-22T11:35:58.317Z,21.10
2023-02-22T11:38:30.987Z,20.68
2023-02-22T11:41:19.781Z,20.63
2023-02-22T11:43:55.036Z,20.28
2023-02-22T11:46:29.226Z,20.14
2023-02-22T11:49:07.220Z,19.68
2023-02-22T11:51:52.631Z,20.20
2023-02-22T11:54:58.987Z,19.77
2023-02-22T11:57:49.455Z,19.74
2023-02-22T12:00:29.387Z,19.44
2023-02-22T12:03:23.733Z,19.63
2023-02-22T12:06:14.996Z,19.45
2023-02-22T12:09:00.364Z,19.37
2023-02-22T12:11:40.715Z,19.25
2023-02-22T12:14:23.343Z,18.70
2023-02-22T12:17:20.887Z,18.62
2023-02-22T12:19:56.034Z,18.50
2023-02-22T12:22:33.577Z,18.25
2023-02-22T12:25:12.740Z,18.35
2023-02-22T12:27:49.519Z,18.20
2023-02-22T12:30:29.370Z,18.50
2023-02-22T12:33:06.361Z,18.80
2023-02-22T12:35:40.340Z,18.79
2023-02-22T12:38:23.126Z,18.68
2023-02-22T12:41:04.499Z,18.68
2023-02-22T12:43:41.838Z,18.57
2023-02-22T12:46:19.706Z,18.61
2023-02-22T12:48:57.229Z,18.42
2023-02-22T12:51:35.596Z,18.31
2023-02-22T12:54:19.534Z,18.23
2023-02-22T12:56:58.754Z,18.31
2023-02-22T12:59:36.927Z,18.16
2023-02-22T13:02:18.908Z,18.05
2023-02-22T13:04:49.417Z,17.91
2023-02-22T13:07:38.766Z,17.82
2023-02-22T13:10:34.783Z,17.95
2023-02-22T13:13:18.322Z,18.17
2023-02-22T13:16:01.130Z,18.04
2023-02-22T13:18:39.371Z,18.15
2023-02-22T13:21:23.167Z,18.17
2023-02-22T13:24:05.503Z,18.25
2023-02-22T13:26:48.485Z,18.03
2023-02-22T13:29:28.587Z,17.99
2023-02-22T13:32:17.088Z,17.82
2023-02-22T13:35:09.236Z,17.81
2023-02-22T13:38:04.850Z,17.53
2023-02-22T13:41:07.940Z,17.51
2023-02-22T13:44:11.448Z,17.32
2023-02-22T13:47:26.665Z,17.40
2023-02-22T13:50:23.582Z,17.34
2023-02-22T13:52:58.147Z,17.45
2023-02-22T13:55:35.414Z,17.67
2023-02-22T13:58:08.968Z,17.60
2023-02-22T14:00:58.488Z,17.56
2023-02-22T14:03:41.502Z,17.60
2023-02-22T14:06:36.063Z,17.43
2023-02-22T14:09:11.259Z,17.35
2023-02-22T14:11:54.360Z,17.25
2023-02-22T14:14:25.367Z,17.11
2023-02-22T14:17:31.774Z,17.03
2023-02-22T14:20:22.401Z,16.77
2023-02-22T14:22:54.879Z,16.70
2023-02-22T14:25:42.643Z,16.75
2023-02-22T14:28:39.332Z,16.60
2023-02-22T14:31:34.450Z,16.70
2023-02-22T14:34:10.537Z,16.68
2023-02-22T14:37:01.130Z,16.52
2023-02-22T14:39:39.221Z,16.53
2023-02-22T14:42:18.228Z,16.42
2023-02-22T14:44:59.778Z,16.36
2023-02-22T14:47:44.025Z,16.33
2023-02-22T14:50:23.820Z,16.35
2023-02-22T14:53:07.476Z,16.42
2023-02-22T14:55:46.381Z,16.28
2023-02-22T14:58:22.553Z,16.38
2023-02-22T15:00:56.922Z,16.19
2023-02-22T15:03:37.820Z,16.17
2023-02-22T15:06:10.269Z,16.16
2023-02-22T15:08:41.830Z,16.02
2023-02-22T15:11:23.589Z,16.01
2023-02-22T15:13:55.480Z,15.88
2023-02-22T15:16:31.342Z,15.81
2023-02-22T15:19:09.555Z,15.70
2023-02-22T15:21:50.169Z,15.67
2023-02-22T15:24:26.814Z,15.60
2023-02-22T15:27:02.535Z,15.52
2023-02-22T15:29:39.076Z,15.51
2023-02-22T15:32:23.842Z,15.48
2023-02-22T15:34:57.343Z,15.40
2023-02-22T15:37:29.345Z,15.39
2023-02-22T15:40:14.761Z,15.23
2023-02-22T15:42:50.485Z,15.16
2023-02-22T15:45:25.276Z,15.07
2023-02-22T15:47:58.677Z,15.02
2023-02-22T15:50:34.038Z,15.11
2023-02-22T15:53:07.190Z,15.50
2023-02-22T15:55:40.749Z,15.05
2023-02-22T15:58:15.014Z,15.19
2023-02-22T16:00:47.232Z,15.69
2023-02-22T16:03:23.568Z,15.36
2023-02-22T16:05:59.452Z,15.33
2023-02-22T16:08:54.377Z,14.98
2023-02-22T16:11:31.121Z,14.79
2023-02-22T16:14:05.640Z,14.57
2023-02-22T16:16:41.810Z,14.56
2023-02-22T16:19:33.239Z,14.34
2023-02-22T16:22:14.207Z,14.16
2023-02-22T16:24:52.191Z,14.06
2023-02-22T16:27:25.053Z,14.01
2023-02-22T16:30:23.201Z,13.90
2023-02-22T16:32:56.013Z,13.81
2023-02-22T16:35:29.024Z,13.72
2023-02-22T16:38:04.871Z,13.55
2023-02-22T16:40:38.650Z,13.41
2023-02-22T16:43:11.723Z,13.34
2023-02-22T16:45:42.704Z,13.25
2023-02-22T16:48:19.823Z,13.11
2023-02-22T16:50:51.474Z,13.03
2023-02-22T16:53:27.242Z,12.93
2023-02-22T16:56:03.628Z,12.89
2023-02-22T16:58:38.663Z,12.83
2023-02-22T17:01:10.073Z,12.71
2023-02-22T17:03:39.987Z,12.65
2023-02-22T17:06:11.892Z,12.64
2023-02-22T17:08:45.688Z,12.54
2023-02-22T17:11:18.192Z,12.49
2023-02-22T17:13:51.914Z,12.47
2023-02-22T17:16:22.123Z,12.46
2023-02-22T17:18:53.265Z,12.38
2023-02-22T17:21:23.186Z,12.31
2023-02-22T17:23:55.587Z,12.26
2023-02-22T17:26:26.296Z,12.24
2023-02-22T17:28:56.851Z,12.19
2023-02-22T17:31:31.099Z,12.15
2023-02-22T17:34:04.614Z,12.08
2023-02-22T17:36:36.898Z,12.03
2023-02-22T17:39:10.699Z,11.92
2023-02-22T17:41:41.081Z,11.83
2023-02-22T17:44:11.017Z,11.82
2023-02-22T17:46:43.225Z,11.75
2023-02-22T17:49:13.945Z,11.67
2023-02-22T17:51:49.448Z,11.57
2023-02-22T17:54:23.118Z,11.49
2023-02-22T17:56:53.291Z,11.42
2023-02-22T17:59:23.290Z,11.34
2023-02-22T18:01:53.829Z,11.30
2023-02-22T18:04:23.787Z,11.16
2023-02-22T18:06:53.614Z,11.08
2023-02-22T18:09:26.855Z,11.14
2023-02-22T18:11:56.788Z,11.10
2023-02-22T18:14:27.204Z,11.09
2023-02-22T18:16:57.154Z,10.95
2023-02-22T18:19:29.223Z,10.87
2023-02-22T18:22:00.337Z,10.80
2023-02-22T18:24:34.851Z,10.75
2023-02-22T18:27:07.924Z,10.72
2023-02-22T18:29:37.978Z,10.64
2023-02-22T18:32:13.335Z,10.60
2023-02-22T18:34:43.371Z,10.59
2023-02-22T18:37:13.222Z,10.52
2023-02-22T18:39:46.177Z,10.48
2023-02-22T18:42:17.898Z,10.44
2023-02-22T18:44:47.895Z,10.44
2023-02-22T18:47:18.183Z,10.36
2023-02-22T18:49:49.285Z,10.28
2023-02-22T18:52:19.158Z,10.23
2023-02-22T18:54:53.291Z,10.20
2023-02-22T18:57:24.690Z,10.21
2023-02-22T18:59:55.049Z,10.23
2023-02-22T19:02:25.741Z,10.25
2023-02-22T19:04:55.658Z,10.26
2023-02-22T19:07:26.342Z,10.24
2023-02-22T19:09:59.279Z,10.20
2023-02-22T19:12:31.387Z,10.18
2023-02-22T19:15:02.012Z,10.17
2023-02-22T19:17:36.852Z,10.16
2023-02-22T19:20:10.133Z,10.13
2023-02-22T19:22:40.352Z,10.06
2023-02-22T19:25:12.843Z,10.03
2023-02-22T19:27:44.556Z,10.00
2023-02-22T19:30:17.225Z,9.98
2023-02-22T19:32:47.647Z,9.98
2023-02-22T19:35:26.406Z,9.96
2023-02-22T19:37:58.206Z,9.94
2023-02-22T19:40:30.919Z,9.94
2023-02-22T19:43:00.748Z,9.94
2023-02-22T19:45:31.223Z,9.87
2023-02-22T19:48:01.085Z,9.88
2023-02-22T19:50:30.998Z,9.86
2023-02-22T19:53:00.852Z,9.85
2023-02-22T19:55:33.497Z,9.83
2023-02-22T19:58:03.348Z,9.82
2023-02-22T20:00:35.585Z,9.81
2023-02-22T20:03:09.522Z,9.77
2023-02-22T20:05:42.695Z,9.79
2023-02-22T20:08:12.545Z,9.79
2023-02-22T20:10:46.546Z,9.80
2023-02-22T20:13:17.197Z,9.78
2023-02-22T20:15:51.127Z,9.73
2023-02-22T20:18:22.996Z,9.71
2023-02-22T20:20:53.301Z,9.70
2023-02-22T20:23:23.623Z,9.69
2023-02-22T20:25:59.814Z,9.65
2023-02-22T20:28:30.076Z,9.62
2023-02-22T20:31:00.393Z,9.57
2023-02-22T20:33:30.476Z,9.52
2023-02-22T20:36:01.224Z,9.53
2023-02-22T20:38:31.097Z,9.52
2023-02-22T20:41:04.123Z,9.52
2023-02-22T20:43:34.468Z,9.48
2023-02-22T20:46:05.942Z,9.45
2023-02-22T20:48:37.742Z,9.43
2023-02-22T20:51:09.172Z,9.39
2023-02-22T20:53:39.831Z,9.33
2023-02-22T20:56:15.064Z,9.30
2023-02-22T20:58:45.855Z,9.30
2023-02-22T21:01:19.768Z,9.28
2023-02-22T21:03:49.767Z,9.23
2023-02-22T21:06:22.751Z,9.19
2023-02-22T21:08:56.174Z,9.19
2023-02-22T21:11:32.846Z,9.19
2023-02-22T21:14:04.426Z,9.14
2023-02-22T21:16:37.114Z,9.17
2023-02-22T21:19:09.796Z,9.16
2023-02-22T21:21:39.782Z,9.16
2023-02-22T21:24:10.675Z,9.18
2023-02-22T21:26:43.247Z,9.18
2023-02-22T21:29:13.064Z,9.21
2023-02-22T21:31:43.142Z,9.22
2023-02-22T21:34:17.554Z,9.26
2023-02-22T21:36:48.237Z,9.23
2023-02-22T21:39:20.877Z,9.23
2023-02-22T21:41:55.092Z,9.23
2023-02-22T21:44:25.097Z,9.23
2023-02-22T21:46:55.564Z,9.24
2023-02-22T21:49:26.345Z,9.23
2023-02-22T21:51:56.622Z,9.23
2023-02-22T21:54:28.074Z,9.22
2023-02-22T21:57:01.410Z,9.21
2023-02-22T21:59:31.353Z,9.24
2023-02-22T22:02:01.299Z,9.19
2023-02-22T22:04:35.064Z,9.18
2023-02-22T22:07:05.522Z,9.16
2023-02-22T22:09:38.106Z,9.14
2023-02-22T22:12:14.204Z,9.14
2023-02-22T22:14:44.875Z,9.11
2023-02-22T22:17:15.591Z,9.12
2023-02-22T22:19:48.926Z,9.12
2023-02-22T22:22:20.746Z,9.11
2023-02-22T22:24:50.686Z,9.11
2023-02-22T22:27:23.767Z,9.11
2023-02-22T22:29:57.261Z,9.09
2023-02-22T22:32:27.653Z,9.09
2023-02-22T22:34:59.363Z,9.08
2023-02-22T22:37:31.102Z,9.06
2023-02-22T22:40:01.319Z,9.09
2023-02-22T22:42:33.692Z,9.05
2023-02-22T22:45:03.941Z,9.05
2023-02-22T22:47:33.832Z,9.03
2023-02-22T22:50:03.741Z,9.06
2023-02-22T22:52:35.341Z,9.04
2023-02-22T22:55:07.667Z,9.02
2023-02-22T22:57:41.162Z,9.01
2023-02-22T23:00:30.699Z,9.00
2023-02-22T23:03:00.792Z,8.96
2023-02-22T23:05:31.400Z,8.96
2023-02-22T23:08:04.862Z,8.97
2023-02-22T23:10:39.672Z,9.00
2023-02-22T23:13:15.718Z,8.94
2023-02-22T23:15:48.091Z,8.92
2023-02-22T23:18:20.519Z,8.90
2023-02-22T23:20:55.238Z,8.93
2023-02-22T23:23:28.220Z,8.93
2023-02-22T23:26:11.591Z,8.88
2023-02-22T23:28:45.254Z,8.88
2023-02-22T23:31:18.107Z,8.87
2023-02-22T23:33:51.049Z,8.84
2023-02-22T23:36:22.293Z,8.83
2023-02-22T23:38:52.125Z,8.81
2023-02-22T23:41:25.121Z,8.84
2023-02-22T23:43:57.946Z,8.82
2023-02-22T23:46:32.840Z,8.80
2023-02-22T23:49:05.432Z,8.80
2023-02-22T23:51:39.592Z,8.78
2023-02-22T23:54:12.421Z,8.79
2023-02-22T23:56:53.656Z,8.79
2023-02-22T23:59:28.058Z,8.77
